Archival Weather

Tokyo Intl

Tokyo Intl, Japan (RJTT)

Report from: Friday, June 24, 2022 8:14 AM JST
Current time: Tuesday, August 16, 2022 11:03 AM JST

Current weather
Weather history
Weather forecast

Temperature28.0°C (82.4°F)
Heat index32.0°C (89.6°F)
Dew point24.0°C (75.2°F)
Winds 18 kts (9.3 m/s, 20.7 mph) South-Southwest (210°)
Wind gusts 28 kts (14.4 m/s, 32.2 mph)
Visibility6.2 mi. (10 km)
Clouds Ceiling: Broken clouds 0 ft. (0 m)
Few clouds 1,000 ft. (305 m)
Broken clouds 18,000 ft. (5,486 m)
Altimeter29.71 in.Hg (1006 mB)
Relative humidity79 %
Density altitude2,140 ft. (652 m)
Remarks Special weather observation
Flight conditions Low Instrument Meteorological Conditions
Raw dataSPJP31 KWBC 232326 SPECI RJTT 232314Z 21018G28KT 9999 FEW010 BKN180 BKN/// 28/24 Q1006 RMK 1ST010 5AC180 A2972
An error has occurred. This application may no longer respond until reloaded. Reload 🗙